createdAt,value
2019-03-21T00:00:02.856Z,1027.46
2019-03-21T00:01:02.853Z,1027.45
2019-03-21T00:02:02.802Z,1027.44
2019-03-21T00:03:02.868Z,1027.42
2019-03-21T00:04:02.937Z,1027.45
2019-03-21T00:05:02.792Z,1027.45
2019-03-21T00:06:02.833Z,1027.44
2019-03-21T00:07:02.729Z,1027.44
2019-03-21T00:08:02.780Z,1027.38
2019-03-21T00:09:02.915Z,1027.47
2019-03-21T00:10:02.702Z,1027.46
2019-03-21T00:11:02.783Z,1027.46
2019-03-21T00:12:02.746Z,1027.44
2019-03-21T00:13:02.657Z,1027.48
2019-03-21T00:14:07.009Z,1027.52
2019-03-21T00:15:02.689Z,1027.47
2019-03-21T00:16:02.590Z,1027.52
2019-03-21T00:17:02.619Z,1027.52
2019-03-21T00:18:02.565Z,1027.47
2019-03-21T00:19:02.801Z,1027.46
2019-03-21T00:20:02.543Z,1027.43
2019-03-21T00:21:02.528Z,1027.44
2019-03-21T00:22:02.514Z,1027.46
2019-03-21T00:23:02.511Z,1027.43
2019-03-21T00:24:02.530Z,1027.47
2019-03-21T00:25:02.514Z,1027.43
2019-03-21T00:26:02.473Z,1027.43
2019-03-21T00:27:02.459Z,1027.42
2019-03-21T00:28:02.446Z,1027.41
2019-03-21T00:29:02.453Z,1027.42
2019-03-21T00:30:02.449Z,1027.41
2019-03-21T00:31:02.422Z,1027.42
2019-03-21T00:32:02.402Z,1027.41
2019-03-21T00:33:02.395Z,1027.40
2019-03-21T00:34:02.397Z,1027.40
2019-03-21T00:35:02.396Z,1027.39
2019-03-21T00:36:02.364Z,1027.37
2019-03-21T00:37:02.348Z,1027.43
2019-03-21T00:38:02.336Z,1027.39
2019-03-21T00:39:02.318Z,1027.42
2019-03-21T00:40:02.356Z,1027.39
2019-03-21T00:41:02.305Z,1027.38
2019-03-21T00:42:02.292Z,1027.38
2019-03-21T00:43:02.273Z,1027.41
2019-03-21T00:44:02.268Z,1027.38
2019-03-21T00:45:02.289Z,1027.36
2019-03-21T00:46:02.247Z,1027.37
2019-03-21T00:47:02.227Z,1027.35
2019-03-21T00:48:02.216Z,1027.35
2019-03-21T00:49:02.204Z,1027.38
2019-03-21T00:50:02.207Z,1027.39
2019-03-21T00:51:02.212Z,1027.39
2019-03-21T00:52:02.174Z,1027.33
2019-03-21T00:53:02.167Z,1027.29
2019-03-21T00:54:02.167Z,1027.25
2019-03-21T00:55:02.144Z,1027.25
2019-03-21T00:56:02.166Z,1027.25
2019-03-21T00:57:02.132Z,1027.26
2019-03-21T00:58:02.114Z,1027.25
2019-03-21T00:59:02.100Z,1027.25
2019-03-21T01:00:02.093Z,1027.24
2019-03-21T01:01:02.101Z,1027.23
2019-03-21T01:02:02.076Z,1027.20
2019-03-21T01:03:03.709Z,1027.17
2019-03-21T01:04:02.039Z,1027.14
2019-03-21T01:05:02.041Z,1027.18
2019-03-21T01:06:02.051Z,1027.15
2019-03-21T01:07:02.018Z,1027.17
2019-03-21T01:08:02.006Z,1027.16
2019-03-21T01:09:01.987Z,1027.19
2019-03-21T01:10:02.072Z,1027.18
2019-03-21T01:11:01.986Z,1027.17
2019-03-21T01:12:01.947Z,1027.18
2019-03-21T01:13:01.936Z,1027.14
2019-03-21T01:14:01.926Z,1027.14
2019-03-21T01:15:01.931Z,1027.09
2019-03-21T01:16:01.951Z,1027.07
2019-03-21T01:17:01.894Z,1027.06
2019-03-21T01:18:01.891Z,1027.06
2019-03-21T01:19:01.868Z,1027.04
2019-03-21T01:20:01.866Z,1027.03
2019-03-21T01:21:01.847Z,1027.03
2019-03-21T01:22:01.936Z,1027.01
2019-03-21T01:23:01.823Z,1027.04
2019-03-21T01:24:01.827Z,1027.04
2019-03-21T01:25:01.845Z,1027.04
2019-03-21T01:26:01.796Z,1027.08
2019-03-21T01:27:01.805Z,1027.05
2019-03-21T01:28:01.775Z,1027.03
2019-03-21T01:29:01.756Z,1026.98
2019-03-21T01:30:01.743Z,1026.92
2019-03-21T01:31:01.761Z,1026.90
2019-03-21T01:32:01.785Z,1026.93
2019-03-21T01:33:01.714Z,1026.90
2019-03-21T01:34:01.700Z,1026.88
2019-03-21T01:35:01.689Z,1026.89
2019-03-21T01:36:01.679Z,1026.88
2019-03-21T01:37:01.688Z,1026.90
2019-03-21T01:38:01.650Z,1026.86
2019-03-21T01:39:01.642Z,1026.86
2019-03-21T01:40:01.628Z,1026.85
2019-03-21T01:41:01.624Z,1026.85
2019-03-21T01:42:01.643Z,1026.87
2019-03-21T01:43:01.612Z,1026.88
2019-03-21T01:44:01.654Z,1026.91
2019-03-21T01:45:01.575Z,1026.88
2019-03-21T01:46:01.564Z,1026.95
2019-03-21T01:47:01.584Z,1026.91
2019-03-21T01:48:01.539Z,1026.91
2019-03-21T01:49:01.544Z,1026.93
2019-03-21T01:50:01.516Z,1026.94
2019-03-21T01:51:01.505Z,1026.95
2019-03-21T01:52:01.499Z,1026.97
2019-03-21T01:53:01.510Z,1026.92
2019-03-21T01:54:01.477Z,1026.90
2019-03-21T01:55:01.465Z,1026.91
2019-03-21T01:56:01.461Z,1026.89
2019-03-21T01:57:01.450Z,1026.86
2019-03-21T01:58:01.454Z,1026.88
2019-03-21T01:59:01.419Z,1026.88
2019-03-21T02:00:01.433Z,1026.86
2019-03-21T02:01:01.391Z,1026.83
2019-03-21T02:02:01.385Z,1026.80
2019-03-21T02:03:01.405Z,1026.79
2019-03-21T02:04:01.358Z,1026.75
2019-03-21T02:05:01.350Z,1026.74
2019-03-21T02:06:01.336Z,1026.79
2019-03-21T02:07:01.325Z,1026.76
2019-03-21T02:08:01.351Z,1026.78
2019-03-21T02:09:01.311Z,1026.78
2019-03-21T02:10:01.296Z,1026.79
2019-03-21T02:11:01.286Z,1026.79
2019-03-21T02:12:01.273Z,1026.76
2019-03-21T02:13:01.282Z,1026.78
2019-03-21T02:14:01.248Z,1026.82
2019-03-21T02:15:01.243Z,1026.77
2019-03-21T02:16:01.232Z,1026.79
2019-03-21T02:17:01.214Z,1026.80
2019-03-21T02:18:01.229Z,1026.75
2019-03-21T02:19:01.192Z,1026.75
2019-03-21T02:20:01.187Z,1026.74
2019-03-21T02:21:01.172Z,1026.72
2019-03-21T02:22:01.155Z,1026.73
2019-03-21T02:23:01.170Z,1026.74
2019-03-21T02:24:01.135Z,1026.72
2019-03-21T02:25:01.123Z,1026.71
2019-03-21T02:26:01.112Z,1026.72
2019-03-21T02:27:01.103Z,1026.72
2019-03-21T02:28:01.088Z,1026.71
2019-03-21T02:29:01.108Z,1026.75
2019-03-21T02:30:01.069Z,1026.70
2019-03-21T02:31:01.064Z,1026.74
2019-03-21T02:32:01.043Z,1026.79
2019-03-21T02:33:01.043Z,1026.78
2019-03-21T02:34:01.048Z,1026.77
2019-03-21T02:35:01.012Z,1026.74
2019-03-21T02:36:01.008Z,1026.74
2019-03-21T02:37:00.999Z,1026.76
2019-03-21T02:38:00.977Z,1026.73
2019-03-21T02:39:00.989Z,1026.71
2019-03-21T02:40:01.031Z,1026.69
2019-03-21T02:41:00.945Z,1026.72
2019-03-21T02:42:00.945Z,1026.75
2019-03-21T02:43:00.924Z,1026.71
2019-03-21T02:44:00.952Z,1026.72
2019-03-21T02:45:08.309Z,1026.73
2019-03-21T02:46:01.894Z,1026.71
2019-03-21T02:47:00.902Z,1026.70
2019-03-21T02:48:00.868Z,1026.67
2019-03-21T02:49:00.891Z,1026.66
2019-03-21T02:50:00.904Z,1026.66
2019-03-21T02:51:00.836Z,1026.68
2019-03-21T02:52:00.821Z,1026.66
2019-03-21T02:53:00.812Z,1026.65
2019-03-21T02:54:00.831Z,1026.68
2019-03-21T02:55:00.801Z,1026.67
2019-03-21T02:56:00.781Z,1026.68
2019-03-21T02:57:00.768Z,1026.72
2019-03-21T02:58:00.753Z,1026.69
2019-03-21T02:59:00.746Z,1026.70
2019-03-21T03:00:00.783Z,1026.71
2019-03-21T03:01:00.735Z,1026.66
2019-03-21T03:02:00.711Z,1026.71
2019-03-21T03:03:00.696Z,1026.75
2019-03-21T03:04:00.726Z,1026.71
2019-03-21T03:05:00.674Z,1026.73
2019-03-21T03:06:00.774Z,1026.71
2019-03-21T03:07:01.357Z,1026.68
2019-03-21T03:08:00.656Z,1026.68
2019-03-21T03:09:00.668Z,1026.69
2019-03-21T03:10:00.657Z,1026.70
2019-03-21T03:11:00.605Z,1026.67
2019-03-21T03:12:00.600Z,1026.70
2019-03-21T03:13:00.590Z,1026.72
2019-03-21T03:14:04.199Z,1026.71
2019-03-21T03:15:00.585Z,1026.71
2019-03-21T03:16:00.554Z,1026.71
2019-03-21T03:17:00.540Z,1026.71
2019-03-21T03:18:00.543Z,1026.75
2019-03-21T03:19:00.521Z,1026.75
2019-03-21T03:20:00.712Z,1026.75
2019-03-21T03:21:00.518Z,1026.75
2019-03-21T03:22:00.587Z,1026.72
2019-03-21T03:23:00.476Z,1026.73
2019-03-21T03:24:00.467Z,1026.76
2019-03-21T03:25:00.546Z,1026.81
2019-03-21T03:26:00.443Z,1026.81
2019-03-21T03:27:00.426Z,1026.81
2019-03-21T03:28:00.465Z,1026.86
2019-03-21T03:29:00.414Z,1026.84
2019-03-21T03:30:00.664Z,1026.84
2019-03-21T03:31:00.407Z,1026.81
2019-03-21T03:32:00.388Z,1026.87
2019-03-21T03:33:00.360Z,1026.84
2019-03-21T03:34:00.361Z,1026.83
2019-03-21T03:35:01.044Z,1026.91
2019-03-21T03:36:00.325Z,1026.91
2019-03-21T03:37:00.318Z,1026.90
2019-03-21T03:38:00.303Z,1026.95
2019-03-21T03:39:00.302Z,1026.98
2019-03-21T03:40:00.576Z,1027.00
2019-03-21T03:41:00.322Z,1026.97
2019-03-21T03:42:00.261Z,1026.93
2019-03-21T03:43:00.252Z,1026.95
2019-03-21T03:44:00.255Z,1026.95
2019-03-21T03:45:00.416Z,1027.04
2019-03-21T03:46:00.243Z,1026.99
2019-03-21T03:47:00.234Z,1027.02
2019-03-21T03:48:00.197Z,1027.02
2019-03-21T03:49:00.179Z,1027.01
2019-03-21T03:50:00.431Z,1027.00
2019-03-21T03:51:00.172Z,1026.99
2019-03-21T03:52:00.171Z,1026.94
2019-03-21T03:53:00.134Z,1026.98
2019-03-21T03:54:00.124Z,1026.97
2019-03-21T03:55:00.398Z,1026.95
2019-03-21T03:56:00.133Z,1027.02
2019-03-21T03:57:00.141Z,1026.98
2019-03-21T03:58:00.088Z,1027.01
2019-03-21T03:59:00.078Z,1027.01
2019-03-21T04:00:00.103Z,1026.99
2019-03-21T04:01:00.044Z,1027.03
2019-03-21T04:02:00.064Z,1026.98
2019-03-21T04:03:00.027Z,1026.97
2019-03-21T04:04:00.017Z,1026.93
2019-03-21T04:05:00.008Z,1026.97
2019-03-21T04:06:00.015Z,1026.96
2019-03-21T04:06:59.979Z,1026.95
2019-03-21T04:07:59.974Z,1026.96
2019-03-21T04:08:59.965Z,1026.99
2019-03-21T04:09:59.952Z,1026.97
2019-03-21T04:10:59.935Z,1026.96
2019-03-21T04:11:59.947Z,1026.95
2019-03-21T04:12:59.911Z,1026.94
2019-03-21T04:13:59.916Z,1026.96
2019-03-21T04:14:59.887Z,1026.91
2019-03-21T04:15:59.877Z,1026.92
2019-03-21T04:16:59.896Z,1026.89
2019-03-21T04:17:59.861Z,1026.90
2019-03-21T04:18:59.854Z,1026.90
2019-03-21T04:19:59.838Z,1026.89
2019-03-21T04:20:59.833Z,1026.89
2019-03-21T04:21:59.831Z,1026.93
2019-03-21T04:22:59.801Z,1026.93
2019-03-21T04:24:00.272Z,1026.88
2019-03-21T04:24:59.781Z,1026.94
2019-03-21T04:25:59.766Z,1026.91
2019-03-21T04:26:59.783Z,1026.88
2019-03-21T04:27:59.742Z,1026.90
2019-03-21T04:28:59.735Z,1026.91
2019-03-21T04:29:59.721Z,1026.91
2019-03-21T04:30:59.713Z,1026.94
2019-03-21T04:31:59.760Z,1026.86
2019-03-21T04:32:59.682Z,1026.91
2019-03-21T04:33:59.715Z,1026.90
2019-03-21T04:34:59.751Z,1026.94
2019-03-21T04:35:59.649Z,1026.93
2019-03-21T04:36:59.685Z,1026.87
2019-03-21T04:37:59.627Z,1026.91
2019-03-21T04:38:59.641Z,1026.89
2019-03-21T04:39:59.671Z,1026.87
2019-03-21T04:40:59.626Z,1026.92
2019-03-21T04:41:59.617Z,1026.95
2019-03-21T04:42:59.637Z,1026.92
2019-03-21T04:43:59.566Z,1026.94
2019-03-21T04:44:59.554Z,1026.93
2019-03-21T04:46:03.526Z,1026.92
2019-03-21T04:46:59.528Z,1026.91
2019-03-21T04:47:59.544Z,1026.93
2019-03-21T04:48:59.504Z,1026.94
2019-03-21T04:49:59.493Z,1026.93
2019-03-21T04:50:59.483Z,1026.96
2019-03-21T04:51:59.475Z,1026.97
2019-03-21T04:52:59.508Z,1027.00
2019-03-21T04:53:59.449Z,1027.00
2019-03-21T04:54:59.441Z,1026.99
2019-03-21T04:55:59.428Z,1027.01
2019-03-21T04:56:59.417Z,1027.00
2019-03-21T04:57:59.433Z,1027.01
2019-03-21T04:58:59.393Z,1026.96
2019-03-21T04:59:59.383Z,1026.99
2019-03-21T05:00:59.382Z,1027.01
2019-03-21T05:01:59.387Z,1026.96
2019-03-21T05:02:59.379Z,1026.99
2019-03-21T05:03:59.375Z,1026.97
2019-03-21T05:04:59.336Z,1026.99
2019-03-21T05:05:59.318Z,1026.97
2019-03-21T05:06:59.315Z,1026.98
2019-03-21T05:07:59.329Z,1026.99
2019-03-21T05:08:59.286Z,1026.95
2019-03-21T05:09:59.279Z,1026.99
2019-03-21T05:10:59.272Z,1026.94
2019-03-21T05:11:59.257Z,1027.02
2019-03-21T05:12:59.271Z,1027.02
2019-03-21T05:13:59.240Z,1027.01
2019-03-21T05:14:59.242Z,1027.02
2019-03-21T05:15:59.215Z,1027.01
2019-03-21T05:16:59.199Z,1027.02
2019-03-21T05:17:59.216Z,1027.03
2019-03-21T05:18:59.189Z,1026.98
2019-03-21T05:19:59.178Z,1027.01
2019-03-21T05:20:59.155Z,1027.04
2019-03-21T05:21:59.142Z,1027.07
2019-03-21T05:22:59.165Z,1027.03
2019-03-21T05:23:59.153Z,1026.99
2019-03-21T05:24:59.122Z,1027.04
2019-03-21T05:25:59.106Z,1027.04
2019-03-21T05:26:59.088Z,1027.05
2019-03-21T05:27:59.078Z,1027.06
2019-03-21T05:28:59.094Z,1027.06
2019-03-21T05:29:59.062Z,1027.13
2019-03-21T05:30:59.059Z,1027.12
2019-03-21T05:31:59.040Z,1027.10
2019-03-21T05:32:59.021Z,1027.17
2019-03-21T05:33:59.039Z,1027.18
2019-03-21T05:34:59.013Z,1027.17
2019-03-21T05:35:58.996Z,1027.19
2019-03-21T05:36:58.982Z,1027.16
2019-03-21T05:37:58.968Z,1027.23
2019-03-21T05:38:59.005Z,1027.21
2019-03-21T05:39:58.963Z,1027.22
2019-03-21T05:40:58.937Z,1027.18
2019-03-21T05:41:58.934Z,1027.20
2019-03-21T05:42:58.927Z,1027.20
2019-03-21T05:43:58.935Z,1027.19
2019-03-21T05:44:58.890Z,1027.17
2019-03-21T05:45:58.877Z,1027.18
2019-03-21T05:46:58.938Z,1027.14
2019-03-21T05:47:58.917Z,1027.20
2019-03-21T05:48:58.846Z,1027.22
2019-03-21T05:49:58.861Z,1027.19
2019-03-21T05:50:58.828Z,1027.21
2019-03-21T05:51:58.813Z,1027.25
2019-03-21T05:52:58.803Z,1027.19
2019-03-21T05:53:58.797Z,1027.19
2019-03-21T05:54:58.809Z,1027.21
2019-03-21T05:55:58.783Z,1027.28
2019-03-21T05:56:58.766Z,1027.26
2019-03-21T05:57:58.755Z,1027.26
2019-03-21T05:58:58.739Z,1027.28
2019-03-21T05:59:58.757Z,1027.29
2019-03-21T06:00:58.720Z,1027.32
2019-03-21T06:01:58.706Z,1027.24
2019-03-21T06:02:58.691Z,1027.29
2019-03-21T06:03:58.682Z,1027.28
2019-03-21T06:04:58.696Z,1027.22
2019-03-21T06:05:58.668Z,1027.24
2019-03-21T06:06:58.652Z,1027.28
2019-03-21T06:07:58.644Z,1027.24
2019-03-21T06:08:58.628Z,1027.22
2019-03-21T06:09:58.646Z,1027.21
2019-03-21T06:10:58.606Z,1027.23
2019-03-21T06:11:58.599Z,1027.31
2019-03-21T06:12:58.593Z,1027.26
2019-03-21T06:13:58.580Z,1027.32
2019-03-21T06:14:58.593Z,1027.31
2019-03-21T06:15:58.549Z,1027.32
2019-03-21T06:16:58.540Z,1027.30
2019-03-21T06:17:58.534Z,1027.33
2019-03-21T06:18:58.522Z,1027.30
2019-03-21T06:19:58.542Z,1027.33
2019-03-21T06:20:58.503Z,1027.35
2019-03-21T06:21:58.487Z,1027.37
2019-03-21T06:22:58.652Z,1027.38
2019-03-21T06:23:58.469Z,1027.37
2019-03-21T06:24:58.474Z,1027.40
2019-03-21T06:25:58.463Z,1027.41
2019-03-21T06:26:59.087Z,1027.44
2019-03-21T06:27:58.426Z,1027.37
2019-03-21T06:28:58.408Z,1027.39
2019-03-21T06:29:58.401Z,1027.41
2019-03-21T06:30:58.571Z,1027.42
2019-03-21T06:31:58.376Z,1027.42
2019-03-21T06:32:58.370Z,1027.41
2019-03-21T06:33:58.357Z,1027.49
2019-03-21T06:34:58.428Z,1027.49
2019-03-21T06:35:58.357Z,1027.46
2019-03-21T06:36:58.389Z,1027.49
2019-03-21T06:37:58.352Z,1027.48
2019-03-21T06:38:58.376Z,1027.49
2019-03-21T06:39:58.313Z,1027.53
2019-03-21T06:40:58.317Z,1027.53
2019-03-21T06:41:58.261Z,1027.54
2019-03-21T06:42:58.259Z,1027.53
2019-03-21T06:43:58.245Z,1027.57
2019-03-21T06:44:58.240Z,1027.59
2019-03-21T06:45:58.254Z,1027.58
2019-03-21T06:46:58.206Z,1027.58
2019-03-21T06:47:58.210Z,1027.62
2019-03-21T06:48:58.188Z,1027.58
2019-03-21T06:49:58.182Z,1027.60
2019-03-21T06:50:58.167Z,1027.59
2019-03-21T06:51:58.179Z,1027.57
2019-03-21T06:52:58.146Z,1027.60
2019-03-21T06:53:58.135Z,1027.63
2019-03-21T06:54:59.850Z,1027.63
2019-03-21T06:55:58.139Z,1027.61
2019-03-21T06:56:58.101Z,1027.66
2019-03-21T06:57:58.087Z,1027.64
2019-03-21T06:58:58.081Z,1027.61
2019-03-21T06:59:58.066Z,1027.63
2019-03-21T07:00:58.064Z,1027.62
2019-03-21T07:01:58.075Z,1027.61
2019-03-21T07:02:58.044Z,1027.62
2019-03-21T07:04:06.599Z,1027.58
2019-03-21T07:04:59.008Z,1027.58
2019-03-21T07:05:57.999Z,1027.58
2019-03-21T07:07:07.483Z,1027.61
2019-03-21T07:07:58.977Z,1027.63
2019-03-21T07:08:57.992Z,1027.62
2019-03-21T07:09:57.962Z,1027.65
2019-03-21T07:10:58.469Z,1027.61
2019-03-21T07:11:57.962Z,1027.63
2019-03-21T07:12:57.924Z,1027.61
2019-03-21T07:13:57.922Z,1027.65
2019-03-21T07:14:57.908Z,1027.58
2019-03-21T07:15:57.901Z,1027.62
2019-03-21T07:17:00.635Z,1027.61
2019-03-21T07:17:57.876Z,1027.66
2019-03-21T07:18:57.865Z,1027.63
2019-03-21T07:19:57.849Z,1027.60
2019-03-21T07:20:57.836Z,1027.60
2019-03-21T07:21:57.859Z,1027.60
2019-03-21T07:22:57.815Z,1027.62
2019-03-21T07:23:57.804Z,1027.56
2019-03-21T07:24:57.803Z,1027.58
2019-03-21T07:25:57.778Z,1027.60
2019-03-21T07:26:57.820Z,1027.59
2019-03-21T07:27:57.764Z,1027.61
2019-03-21T07:28:57.746Z,1027.57
2019-03-21T07:29:57.736Z,1027.55
2019-03-21T07:30:57.743Z,1027.54
2019-03-21T07:31:57.758Z,1027.52
2019-03-21T07:32:57.735Z,1027.50
2019-03-21T07:33:57.700Z,1027.55
2019-03-21T07:34:57.687Z,1027.51
2019-03-21T07:35:57.683Z,1027.56
2019-03-21T07:36:57.668Z,1027.56
2019-03-21T07:37:57.683Z,1027.55
2019-03-21T07:38:57.644Z,1027.57
2019-03-21T07:39:57.629Z,1027.55
2019-03-21T07:40:57.641Z,1027.58
2019-03-21T07:41:57.610Z,1027.56
2019-03-21T07:42:57.620Z,1027.52
2019-03-21T07:43:57.586Z,1027.55
2019-03-21T07:44:57.570Z,1027.50
2019-03-21T07:45:57.596Z,1027.55
2019-03-21T07:46:57.551Z,1027.53
2019-03-21T07:47:57.571Z,1027.52
2019-03-21T07:48:57.560Z,1027.57
2019-03-21T07:49:57.520Z,1027.60
2019-03-21T07:50:57.522Z,1027.64
2019-03-21T07:51:57.502Z,1027.62
2019-03-21T07:52:57.534Z,1027.59
2019-03-21T07:53:57.475Z,1027.65
2019-03-21T07:54:57.461Z,1027.66
2019-03-21T07:55:57.456Z,1027.68
2019-03-21T07:56:57.440Z,1027.67
2019-03-21T07:57:59.428Z,1027.66
2019-03-21T07:58:57.959Z,1027.64
2019-03-21T07:59:57.412Z,1027.66
2019-03-21T08:00:57.400Z,1027.69
2019-03-21T08:01:57.387Z,1027.65
2019-03-21T08:02:57.385Z,1027.68
2019-03-21T08:03:57.406Z,1027.68
2019-03-21T08:04:57.360Z,1027.67
2019-03-21T08:05:57.346Z,1027.69
2019-03-21T08:06:57.339Z,1027.71
2019-03-21T08:07:57.325Z,1027.72
2019-03-21T08:08:57.355Z,1027.72
2019-03-21T08:09:57.304Z,1027.69
2019-03-21T08:10:57.288Z,1027.66
2019-03-21T08:11:57.280Z,1027.66
2019-03-21T08:12:57.270Z,1027.67
2019-03-21T08:13:57.287Z,1027.72
2019-03-21T08:14:57.242Z,1027.67
2019-03-21T08:15:57.232Z,1027.65
2019-03-21T08:16:57.226Z,1027.62
2019-03-21T08:17:57.211Z,1027.66
2019-03-21T08:18:57.237Z,1027.63
2019-03-21T08:19:57.221Z,1027.66
2019-03-21T08:20:59.922Z,1027.61
2019-03-21T08:21:57.168Z,1027.60
2019-03-21T08:22:57.164Z,1027.62
2019-03-21T08:23:57.147Z,1027.59
2019-03-21T08:24:57.157Z,1027.67
2019-03-21T08:25:57.124Z,1027.61
2019-03-21T08:26:57.256Z,1027.61
2019-03-21T08:27:57.099Z,1027.62
2019-03-21T08:28:57.194Z,1027.56
2019-03-21T08:29:57.107Z,1027.59
2019-03-21T08:30:57.068Z,1027.56
2019-03-21T08:31:57.051Z,1027.59
2019-03-21T08:32:57.060Z,1027.60
2019-03-21T08:33:57.046Z,1027.62
2019-03-21T08:34:57.169Z,1027.62
2019-03-21T08:35:57.015Z,1027.58
2019-03-21T08:36:56.997Z,1027.59
2019-03-21T08:37:56.988Z,1027.58
2019-03-21T08:38:56.982Z,1027.59
2019-03-21T08:39:56.995Z,1027.63
2019-03-21T08:40:56.955Z,1027.61
2019-03-21T08:41:56.938Z,1027.57
2019-03-21T08:42:56.941Z,1027.59
2019-03-21T08:43:56.925Z,1027.56
2019-03-21T08:44:56.941Z,1027.58
2019-03-21T08:45:56.928Z,1027.66
2019-03-21T08:46:56.887Z,1027.61
2019-03-21T08:47:56.878Z,1027.59
2019-03-21T08:48:56.865Z,1027.62
2019-03-21T08:49:56.889Z,1027.56
2019-03-21T08:51:07.608Z,1027.55
2019-03-21T08:51:57.830Z,1027.51
2019-03-21T08:52:56.821Z,1027.56
2019-03-21T08:53:56.818Z,1027.57
2019-03-21T08:54:56.799Z,1027.56
2019-03-21T08:55:56.817Z,1027.61
2019-03-21T08:56:56.779Z,1027.58
2019-03-21T08:57:56.774Z,1027.58
2019-03-21T08:58:56.750Z,1027.55
2019-03-21T08:59:56.750Z,1027.51
2019-03-21T09:00:56.755Z,1027.54
2019-03-21T09:01:56.724Z,1027.53
2019-03-21T09:02:56.718Z,1027.53
2019-03-21T09:03:56.693Z,1027.50
2019-03-21T09:04:56.694Z,1027.54
2019-03-21T09:05:56.699Z,1027.55
2019-03-21T09:06:56.660Z,1027.51
2019-03-21T09:07:56.649Z,1027.46
2019-03-21T09:08:56.646Z,1027.51
2019-03-21T09:09:56.631Z,1027.48
2019-03-21T09:10:56.646Z,1027.51
2019-03-21T09:11:56.606Z,1027.51
2019-03-21T09:12:56.595Z,1027.47
2019-03-21T09:13:56.602Z,1027.52
2019-03-21T09:14:56.579Z,1027.55
2019-03-21T09:15:56.607Z,1027.47
2019-03-21T09:16:56.561Z,1027.48
2019-03-21T09:17:56.552Z,1027.49
2019-03-21T09:18:56.524Z,1027.50
2019-03-21T09:19:56.514Z,1027.57
2019-03-21T09:20:56.538Z,1027.53
2019-03-21T09:21:56.524Z,1027.48
2019-03-21T09:22:56.484Z,1027.50
2019-03-21T09:23:56.478Z,1027.55
2019-03-21T09:24:56.457Z,1027.51
2019-03-21T09:25:56.566Z,1027.54
2019-03-21T09:26:56.440Z,1027.57
2019-03-21T09:28:02.616Z,1027.59
2019-03-21T09:28:57.427Z,1027.53
2019-03-21T09:29:56.406Z,1027.54
2019-03-21T09:30:56.703Z,1027.58
2019-03-21T09:31:56.377Z,1027.57
2019-03-21T09:32:56.557Z,1027.58
2019-03-21T09:33:56.362Z,1027.56
2019-03-21T09:34:56.348Z,1027.62
2019-03-21T09:35:56.370Z,1027.59
2019-03-21T09:36:56.345Z,1027.63
2019-03-21T09:37:56.409Z,1027.61
2019-03-21T09:38:56.300Z,1027.65
2019-03-21T09:39:56.296Z,1027.64
2019-03-21T09:40:56.282Z,1027.60
2019-03-21T09:41:56.386Z,1027.64
2019-03-21T09:42:56.280Z,1027.62
2019-03-21T09:43:56.268Z,1027.65
2019-03-21T09:44:56.238Z,1027.63
2019-03-21T09:45:56.229Z,1027.55
2019-03-21T09:46:56.253Z,1027.54
2019-03-21T09:47:56.212Z,1027.52
2019-03-21T09:48:56.207Z,1027.51
2019-03-21T09:49:56.183Z,1027.52
2019-03-21T09:50:56.171Z,1027.51
2019-03-21T09:51:56.165Z,1027.46
2019-03-21T09:52:56.175Z,1027.48
2019-03-21T09:53:56.136Z,1027.47
2019-03-21T09:54:56.123Z,1027.49
2019-03-21T09:55:56.125Z,1027.51
2019-03-21T09:56:56.132Z,1027.52
2019-03-21T09:57:56.120Z,1027.55
2019-03-21T09:58:56.081Z,1027.55
2019-03-21T09:59:56.067Z,1027.50
2019-03-21T10:00:56.060Z,1027.54
2019-03-21T10:01:56.051Z,1027.53
2019-03-21T10:02:56.065Z,1027.51
2019-03-21T10:03:56.024Z,1027.50
2019-03-21T10:04:56.012Z,1027.47
2019-03-21T10:05:56.012Z,1027.50
2019-03-21T10:06:55.995Z,1027.51
2019-03-21T10:07:56.023Z,1027.53
2019-03-21T10:08:56.129Z,1027.47
2019-03-21T10:09:55.968Z,1027.56
2019-03-21T10:10:55.951Z,1027.51
2019-03-21T10:11:56.035Z,1027.50
2019-03-21T10:12:55.956Z,1027.50
2019-03-21T10:13:55.914Z,1027.57
2019-03-21T10:14:55.901Z,1027.53
2019-03-21T10:15:55.916Z,1027.56
2019-03-21T10:16:55.900Z,1027.56
2019-03-21T10:17:55.883Z,1027.62
2019-03-21T10:18:55.892Z,1027.68
2019-03-21T10:19:55.858Z,1027.70
2019-03-21T10:20:55.850Z,1027.72
2019-03-21T10:21:55.865Z,1027.71
2019-03-21T10:22:55.830Z,1027.65
2019-03-21T10:23:55.833Z,1027.68
2019-03-21T10:24:55.798Z,1027.64
2019-03-21T10:25:55.817Z,1027.61
2019-03-21T10:26:55.798Z,1027.63
2019-03-21T10:27:55.761Z,1027.67
2019-03-21T10:28:55.831Z,1027.64
2019-03-21T10:29:55.748Z,1027.62
2019-03-21T10:30:57.254Z,1027.62
2019-03-21T10:31:55.734Z,1027.57
2019-03-21T10:32:55.710Z,1027.63
2019-03-21T10:33:55.719Z,1027.62
2019-03-21T10:34:55.688Z,1027.68
2019-03-21T10:35:55.677Z,1027.68
2019-03-21T10:36:55.671Z,1027.64
2019-03-21T10:37:55.658Z,1027.65
2019-03-21T10:38:55.684Z,1027.64
2019-03-21T10:39:56.141Z,1027.64
2019-03-21T10:40:55.618Z,1027.64
2019-03-21T10:41:55.603Z,1027.63
2019-03-21T10:42:55.597Z,1027.67
2019-03-21T10:43:55.594Z,1027.66
2019-03-21T10:44:55.606Z,1027.67
2019-03-21T10:45:55.562Z,1027.64
2019-03-21T10:46:55.555Z,1027.61
2019-03-21T10:47:55.545Z,1027.60
2019-03-21T10:48:55.586Z,1027.60
2019-03-21T10:49:55.548Z,1027.60
2019-03-21T10:50:55.510Z,1027.65
2019-03-21T10:51:55.610Z,1027.59
2019-03-21T10:52:55.487Z,1027.57
2019-03-21T10:53:55.477Z,1027.59
2019-03-21T10:54:55.496Z,1027.58
2019-03-21T10:55:55.451Z,1027.55
2019-03-21T10:56:55.456Z,1027.58
2019-03-21T10:57:55.430Z,1027.56
2019-03-21T10:58:55.417Z,1027.54
2019-03-21T10:59:55.442Z,1027.57
2019-03-21T11:00:55.444Z,1027.54
2019-03-21T11:02:06.645Z,1027.50
2019-03-21T11:02:56.374Z,1027.58
2019-03-21T11:03:55.371Z,1027.63
2019-03-21T11:04:55.355Z,1027.57
2019-03-21T11:05:55.369Z,1027.56
2019-03-21T11:06:55.339Z,1027.58
2019-03-21T11:07:55.334Z,1027.60
2019-03-21T11:08:55.329Z,1027.54
2019-03-21T11:09:55.298Z,1027.55
2019-03-21T11:10:55.319Z,1027.54
2019-03-21T11:11:55.284Z,1027.51
2019-03-21T11:12:55.266Z,1027.49
2019-03-21T11:13:55.256Z,1027.56
2019-03-21T11:14:55.248Z,1027.49
2019-03-21T11:15:55.251Z,1027.50
2019-03-21T11:16:55.220Z,1027.49
2019-03-21T11:17:55.211Z,1027.45
2019-03-21T11:18:55.208Z,1027.44
2019-03-21T11:19:55.196Z,1027.41
2019-03-21T11:20:55.210Z,1027.40
2019-03-21T11:22:05.816Z,1027.36
2019-03-21T11:22:56.170Z,1027.36
2019-03-21T11:23:55.141Z,1027.34
2019-03-21T11:24:55.135Z,1027.38
2019-03-21T11:25:55.173Z,1027.29
2019-03-21T11:26:55.109Z,1027.31
2019-03-21T11:27:55.103Z,1027.28
2019-03-21T11:28:55.085Z,1027.32
2019-03-21T11:29:55.090Z,1027.31
2019-03-21T11:30:55.116Z,1027.24
2019-03-21T11:31:55.083Z,1027.26
2019-03-21T11:32:55.039Z,1027.32
2019-03-21T11:33:55.035Z,1027.26
2019-03-21T11:34:56.375Z,1027.24
2019-03-21T11:35:55.200Z,1027.30
2019-03-21T11:36:55.028Z,1027.26
2019-03-21T11:37:54.985Z,1027.23
2019-03-21T11:38:55.007Z,1027.24
2019-03-21T11:39:54.961Z,1027.20
2019-03-21T11:40:54.983Z,1027.18
2019-03-21T11:41:55.018Z,1027.20
2019-03-21T11:42:54.958Z,1027.16
2019-03-21T11:43:54.932Z,1027.22
2019-03-21T11:44:54.912Z,1027.17
2019-03-21T11:45:55.402Z,1027.17
2019-03-21T11:46:54.913Z,1027.10
2019-03-21T11:47:54.873Z,1027.12
2019-03-21T11:48:54.896Z,1027.13
2019-03-21T11:49:54.852Z,1027.11
2019-03-21T11:50:54.849Z,1027.13
2019-03-21T11:51:54.855Z,1027.11
2019-03-21T11:52:54.824Z,1027.07
2019-03-21T11:53:54.818Z,1027.07
2019-03-21T11:54:54.813Z,1027.07
2019-03-21T11:55:54.790Z,1027.02
2019-03-21T11:56:54.829Z,1027.11
2019-03-21T11:57:54.768Z,1027.10
2019-03-21T11:58:54.762Z,1027.11
2019-03-21T11:59:54.745Z,1027.09
2019-03-21T12:00:54.741Z,1027.07
2019-03-21T12:01:54.745Z,1027.09
2019-03-21T12:02:54.740Z,1027.11
2019-03-21T12:03:54.705Z,1027.10
2019-03-21T12:04:54.700Z,1027.13